createdAt,value
2023-04-16T00:01:37.181Z,95220.78
2023-04-16T00:04:04.071Z,95212.28
2023-04-16T00:06:30.739Z,95209.81
2023-04-16T00:08:57.257Z,95205.94
2023-04-16T00:11:23.954Z,95211.19
2023-04-16T00:13:50.505Z,95211.84
2023-04-16T00:16:17.128Z,95208.63
2023-04-16T00:18:43.763Z,95213.69
2023-04-16T00:21:10.251Z,95213.47
2023-04-16T00:23:38.351Z,95209.81
2023-04-16T00:26:05.013Z,95220.16
2023-04-16T00:28:31.512Z,95216.28
2023-04-16T00:31:01.043Z,95221.16
2023-04-16T00:33:27.602Z,95225.81
2023-04-16T00:35:54.221Z,95219.31
2023-04-16T00:38:20.731Z,95221.56
2023-04-16T00:40:47.311Z,95219.53
2023-04-16T00:43:23.107Z,95222.38
2023-04-16T00:45:50.356Z,95219.97
2023-04-16T00:48:17.057Z,95216.28
2023-04-16T00:50:43.719Z,95218.97
2023-04-16T00:53:10.232Z,95220.75
2023-04-16T00:55:37.006Z,95223.81
2023-04-16T00:58:03.546Z,95225.19
2023-04-16T01:00:30.065Z,95218.25
2023-04-16T01:02:56.834Z,95219.50
2023-04-16T01:05:30.185Z,95220.69
2023-04-16T01:08:01.552Z,95222.97
2023-04-16T01:10:29.257Z,95221.19
2023-04-16T01:12:55.899Z,95211.84
2023-04-16T01:15:22.462Z,95208.03
2023-04-16T01:17:49.053Z,95203.34
2023-04-16T01:20:15.649Z,95204.72
2023-04-16T01:22:42.172Z,95205.28
2023-04-16T01:25:12.078Z,95216.00
2023-04-16T01:27:38.882Z,95215.41
2023-04-16T01:30:06.064Z,95225.81
2023-04-16T01:32:32.687Z,95222.38
2023-04-16T01:35:00.731Z,95225.19
2023-04-16T01:37:27.274Z,95219.91
2023-04-16T01:39:53.824Z,95229.59
2023-04-16T01:42:20.341Z,95221.91
2023-04-16T01:44:47.470Z,95221.91
2023-04-16T01:47:14.020Z,95222.69
2023-04-16T01:49:40.579Z,95226.75
2023-04-16T01:52:07.245Z,95233.25
2023-04-16T01:54:33.791Z,95233.66
2023-04-16T01:57:00.315Z,95228.53
2023-04-16T01:59:26.859Z,95233.69
2023-04-16T02:01:53.883Z,95237.56
2023-04-16T02:04:20.502Z,95238.13
2023-04-16T02:06:47.099Z,95236.72
2023-04-16T02:09:13.634Z,95240.94
2023-04-16T02:11:40.206Z,95236.69
2023-04-16T02:14:06.737Z,95234.84
2023-04-16T02:16:42.392Z,95231.09
2023-04-16T02:21:58.733Z,95241.53
2023-04-16T02:24:29.855Z,95238.34
2023-04-16T02:26:57.472Z,95240.97
2023-04-16T02:29:23.950Z,95241.41
2023-04-16T02:31:50.483Z,95241.00
2023-04-16T02:34:17.068Z,95240.78
2023-04-16T02:36:43.579Z,95238.13
2023-04-16T02:39:10.214Z,95238.75
2023-04-16T02:41:36.858Z,95235.28
2023-04-16T02:44:03.390Z,95238.91
2023-04-16T02:46:29.924Z,95242.97
2023-04-16T02:48:56.482Z,95238.13
2023-04-16T02:51:22.999Z,95237.63
2023-04-16T02:53:49.584Z,95239.66
2023-04-16T02:56:16.085Z,95225.94
2023-04-16T02:58:42.571Z,95225.44
2023-04-16T03:01:09.162Z,95230.06
2023-04-16T03:03:35.766Z,95233.28
2023-04-16T03:06:02.431Z,95233.78
2023-04-16T03:08:29.001Z,95237.75
2023-04-16T03:10:55.506Z,95227.34
2023-04-16T03:13:22.000Z,95228.13
2023-04-16T03:15:49.466Z,95223.25
2023-04-16T03:18:16.090Z,95227.34
2023-04-16T03:20:42.642Z,95232.47
2023-04-16T03:23:09.340Z,95215.47
2023-04-16T03:25:35.863Z,95226.78
2023-04-16T03:28:02.404Z,95230.84
2023-04-16T03:30:28.874Z,95221.38
2023-04-16T03:32:55.471Z,95225.94
2023-04-16T03:35:22.079Z,95226.94
2023-04-16T03:37:48.573Z,95233.53
2023-04-16T03:40:15.200Z,95233.69
2023-04-16T03:42:41.690Z,95231.94
2023-04-16T03:45:08.495Z,95231.50
2023-04-16T03:47:35.044Z,95236.13
2023-04-16T03:50:01.642Z,95235.94
2023-04-16T03:52:28.372Z,95230.44
2023-04-16T03:54:54.852Z,95238.13
2023-04-16T03:57:21.366Z,95235.63
2023-04-16T03:59:47.851Z,95242.16
2023-04-16T04:02:14.437Z,95242.91
2023-04-16T04:04:41.219Z,95237.63
2023-04-16T04:07:07.828Z,95229.47
2023-04-16T04:09:34.330Z,95222.84
2023-04-16T04:12:00.873Z,95240.66
2023-04-16T04:14:27.382Z,95228.53
2023-04-16T04:17:00.215Z,95234.50
2023-04-16T04:19:26.747Z,95225.22
2023-04-16T04:22:02.324Z,95234.88
2023-04-16T04:24:28.902Z,95230.78
2023-04-16T04:26:55.440Z,95231.63
2023-04-16T04:29:22.005Z,95237.91
2023-04-16T04:31:48.583Z,95235.19
2023-04-16T04:34:15.194Z,95240.88
2023-04-16T04:36:41.750Z,95239.22
2023-04-16T04:39:14.240Z,95242.03
2023-04-16T04:41:40.735Z,95233.69
2023-04-16T04:44:31.661Z,95233.41
2023-04-16T04:46:58.140Z,95236.22
2023-04-16T04:49:24.663Z,95241.56
2023-04-16T04:51:51.139Z,95241.13
2023-04-16T04:54:17.648Z,95251.34
2023-04-16T04:56:44.149Z,95251.06
2023-04-16T04:59:11.263Z,95254.16
2023-04-16T05:01:38.455Z,95248.47
2023-04-16T05:04:05.149Z,95251.88
2023-04-16T05:06:31.650Z,95249.06
2023-04-16T05:08:58.359Z,95258.66
2023-04-16T05:11:24.998Z,95253.91
2023-04-16T05:13:51.475Z,95248.97
2023-04-16T05:16:18.010Z,95249.06
2023-04-16T05:18:44.550Z,95246.31
2023-04-16T05:21:11.090Z,95249.94
2023-04-16T05:23:37.794Z,95242.38
2023-04-16T05:26:04.322Z,95250.91
2023-04-16T05:28:31.062Z,95253.09
2023-04-16T05:30:57.663Z,95254.13
2023-04-16T05:33:24.160Z,95261.84
2023-04-16T05:35:50.738Z,95260.66
2023-04-16T05:38:17.231Z,95259.38
2023-04-16T05:40:43.767Z,95252.19
2023-04-16T05:43:10.351Z,95245.75
2023-04-16T05:45:36.849Z,95253.91
2023-04-16T05:48:03.388Z,95247.91
2023-04-16T05:50:29.875Z,95259.78
2023-04-16T05:52:56.445Z,95259.31
2023-04-16T05:55:23.013Z,95255.63
2023-04-16T05:57:49.471Z,95262.66
2023-04-16T06:00:16.118Z,95255.09
2023-04-16T06:02:42.789Z,95255.66
2023-04-16T06:05:09.567Z,95262.63
2023-04-16T06:07:36.066Z,95265.28
2023-04-16T06:10:02.549Z,95264.09
2023-04-16T06:12:29.074Z,95261.19
2023-04-16T06:14:57.290Z,95258.31
2023-04-16T06:17:23.801Z,95263.66
2023-04-16T06:19:50.295Z,95261.53
2023-04-16T06:22:16.827Z,95268.06
2023-04-16T06:24:43.383Z,95266.97
2023-04-16T06:27:09.906Z,95263.06
2023-04-16T06:29:42.545Z,95261.38
2023-04-16T06:32:09.384Z,95263.00
2023-04-16T06:34:37.747Z,95259.97
2023-04-16T06:37:04.285Z,95261.53
2023-04-16T06:39:30.918Z,95267.78
2023-04-16T06:41:57.440Z,95262.31
2023-04-16T06:44:23.943Z,95260.97
2023-04-16T06:46:51.063Z,95261.69
2023-04-16T06:49:17.570Z,95262.94
2023-04-16T06:51:44.204Z,95268.47
2023-04-16T06:54:10.703Z,95258.38
2023-04-16T06:56:37.223Z,95268.56
2023-04-16T06:59:04.423Z,95255.72
2023-04-16T07:01:30.964Z,95259.28
2023-04-16T07:03:58.231Z,95268.19
2023-04-16T07:06:24.961Z,95264.94
2023-04-16T07:08:51.477Z,95257.47
2023-04-16T07:11:18.778Z,95259.81
2023-04-16T07:13:45.278Z,95263.75
2023-04-16T07:16:11.819Z,95271.84
2023-04-16T07:18:38.379Z,95273.22
2023-04-16T07:21:04.896Z,95277.94
2023-04-16T07:23:31.446Z,95282.53
2023-04-16T07:25:58.151Z,95282.94
2023-04-16T07:28:24.666Z,95293.16
2023-04-16T07:30:51.285Z,95286.41
2023-04-16T07:33:17.954Z,95291.13
2023-04-16T07:35:44.537Z,95279.16
2023-04-16T07:38:11.160Z,95284.50
2023-04-16T07:40:37.873Z,95288.81
2023-04-16T07:43:04.447Z,95291.56
2023-04-16T07:45:30.958Z,95290.25
2023-04-16T07:47:57.462Z,95290.88
2023-04-16T07:50:24.885Z,95299.59
2023-04-16T07:52:51.404Z,95297.41
2023-04-16T07:55:20.150Z,95299.97
2023-04-16T07:57:46.664Z,95307.50
2023-04-16T08:00:14.037Z,95295.41
2023-04-16T08:02:41.475Z,95302.31
2023-04-16T08:05:08.112Z,95303.56
2023-04-16T08:07:34.959Z,95305.56
2023-04-16T08:10:01.579Z,95304.50
2023-04-16T08:12:29.437Z,95310.31
2023-04-16T08:14:58.397Z,95313.41
2023-04-16T08:17:27.247Z,95307.41
2023-04-16T08:19:56.132Z,95309.69
2023-04-16T08:22:22.822Z,95314.09
2023-04-16T08:24:49.338Z,95316.53
2023-04-16T08:27:19.596Z,95313.25
2023-04-16T08:29:47.543Z,95319.97
2023-04-16T08:32:14.167Z,95319.25
2023-04-16T08:34:41.781Z,95322.94
2023-04-16T08:37:08.309Z,95324.16
2023-04-16T08:39:34.839Z,95323.94
2023-04-16T08:42:02.718Z,95329.31
2023-04-16T08:44:35.100Z,95328.25
2023-04-16T08:47:01.733Z,95328.78
2023-04-16T08:49:28.535Z,95325.88
2023-04-16T08:51:56.181Z,95330.88
2023-04-16T08:54:37.122Z,95339.88
2023-04-16T08:57:06.353Z,95331.47
2023-04-16T08:59:33.424Z,95338.16
2023-04-16T09:02:00.693Z,95338.41
2023-04-16T09:04:27.972Z,95339.59
2023-04-16T09:06:55.799Z,95343.16
2023-04-16T09:09:22.720Z,95348.81
2023-04-16T09:11:55.903Z,95349.75
2023-04-16T09:14:22.445Z,95346.63
2023-04-16T09:16:50.718Z,95359.22
2023-04-16T09:19:17.292Z,95355.88
2023-04-16T09:21:46.458Z,95362.47
2023-04-16T09:24:12.934Z,95354.13
2023-04-16T09:26:41.540Z,95353.31
2023-04-16T09:29:08.386Z,95358.63
2023-04-16T09:31:35.102Z,95361.53
2023-04-16T09:34:07.246Z,95353.97
2023-04-16T09:36:34.683Z,95349.59
2023-04-16T09:39:01.974Z,95351.88
2023-04-16T09:41:30.775Z,95351.22
2023-04-16T09:43:58.110Z,95353.75
2023-04-16T09:46:48.063Z,95353.75
2023-04-16T09:49:16.196Z,95362.22
2023-04-16T09:51:46.702Z,95352.78
2023-04-16T09:54:13.243Z,95351.84
2023-04-16T09:56:46.410Z,95350.66
2023-04-16T09:59:20.034Z,95354.13
2023-04-16T10:01:46.890Z,95350.41
2023-04-16T10:04:13.722Z,95353.16
2023-04-16T10:07:08.052Z,95361.38
2023-04-16T10:09:38.329Z,95365.81
2023-04-16T10:12:05.753Z,95369.84
2023-04-16T10:14:32.655Z,95359.66
2023-04-16T10:17:00.721Z,95371.81
2023-04-16T10:19:27.669Z,95365.88
2023-04-16T10:22:01.168Z,95374.13
2023-04-16T10:24:31.842Z,95372.00
2023-04-16T10:27:01.809Z,95369.78
2023-04-16T10:29:30.211Z,95364.84
2023-04-16T10:31:59.591Z,95368.94
2023-04-16T10:34:26.506Z,95368.78
2023-04-16T10:36:53.822Z,95373.22
2023-04-16T10:39:24.452Z,95371.69
2023-04-16T10:41:51.946Z,95368.38
2023-04-16T10:44:19.281Z,95361.22
2023-04-16T10:46:49.303Z,95370.19
2023-04-16T10:49:25.143Z,95369.34
2023-04-16T10:52:07.596Z,95368.44
2023-04-16T10:54:36.062Z,95380.59
2023-04-16T10:57:08.926Z,95372.00
2023-04-16T10:59:37.166Z,95374.34
2023-04-16T11:02:08.430Z,95379.53
2023-04-16T11:04:40.272Z,95379.34
2023-04-16T11:07:18.415Z,95379.81
2023-04-16T11:10:03.509Z,95367.91
2023-04-16T11:12:29.946Z,95369.03
2023-04-16T11:15:04.900Z,95364.06
2023-04-16T11:17:48.793Z,95375.94
2023-04-16T11:20:20.561Z,95372.47
2023-04-16T11:22:48.469Z,95374.59
2023-04-16T11:25:22.987Z,95380.88
2023-04-16T11:27:50.294Z,95376.97
2023-04-16T11:30:19.459Z,95379.75
2023-04-16T11:32:45.951Z,95371.66
2023-04-16T11:35:19.088Z,95376.13
2023-04-16T11:37:46.210Z,95363.59
2023-04-16T11:40:12.825Z,95369.34
2023-04-16T11:42:40.462Z,95368.03
2023-04-16T11:45:09.041Z,95365.25
2023-04-16T11:47:48.570Z,95366.22
2023-04-16T11:50:19.814Z,95359.25
2023-04-16T11:52:47.127Z,95363.84
2023-04-16T11:55:13.867Z,95368.63
2023-04-16T11:57:40.358Z,95363.47
2023-04-16T12:00:09.248Z,95364.28
2023-04-16T12:02:50.400Z,95370.63
2023-04-16T12:05:28.456Z,95366.78
2023-04-16T12:07:55.386Z,95366.75
2023-04-16T12:10:22.254Z,95363.16
2023-04-16T12:12:48.772Z,95365.38
2023-04-16T12:15:15.296Z,95366.63
2023-04-16T12:17:41.882Z,95372.09
2023-04-16T12:20:13.745Z,95364.44
2023-04-16T12:22:44.832Z,95368.50
2023-04-16T12:25:12.704Z,95367.63
2023-04-16T12:27:54.093Z,95369.25
2023-04-16T12:30:22.830Z,95368.66
2023-04-16T12:32:53.685Z,95370.31
2023-04-16T12:35:30.774Z,95373.16
2023-04-16T12:37:57.666Z,95366.25
2023-04-16T12:40:24.444Z,95366.75
2023-04-16T12:42:50.953Z,95365.53
2023-04-16T12:45:17.455Z,95362.94
2023-04-16T12:47:44.010Z,95362.00
2023-04-16T12:50:10.790Z,95372.19
2023-04-16T12:52:37.436Z,95377.16
2023-04-16T12:55:04.106Z,95364.47
2023-04-16T12:57:30.646Z,95363.75
2023-04-16T12:59:57.851Z,95354.72
2023-04-16T13:02:25.411Z,95359.91
2023-04-16T13:04:52.702Z,95350.50
2023-04-16T13:07:19.647Z,95358.94
2023-04-16T13:09:46.785Z,95358.25
2023-04-16T13:12:13.338Z,95347.84
2023-04-16T13:14:39.952Z,95357.25
2023-04-16T13:17:06.633Z,95354.34
2023-04-16T13:19:33.147Z,95356.03
2023-04-16T13:21:59.622Z,95352.09
2023-04-16T13:24:28.444Z,95346.78
2023-04-16T13:26:55.011Z,95355.22
2023-04-16T13:29:21.641Z,95351.03
2023-04-16T13:31:48.341Z,95352.16
2023-04-16T13:34:15.053Z,95345.22
2023-04-16T13:36:41.554Z,95350.47
2023-04-16T13:39:08.174Z,95351.31
2023-04-16T13:41:34.842Z,95350.19
2023-04-16T13:44:01.348Z,95344.19
2023-04-16T13:46:28.039Z,95346.94
2023-04-16T13:48:54.806Z,95359.03
2023-04-16T13:51:21.781Z,95355.19
2023-04-16T13:53:48.578Z,95357.97
2023-04-16T13:56:15.197Z,95352.50
2023-04-16T13:58:41.714Z,95349.16
2023-04-16T14:01:09.727Z,95354.31
2023-04-16T14:03:36.403Z,95350.31
2023-04-16T14:06:03.717Z,95354.31
2023-04-16T14:08:30.535Z,95357.56
2023-04-16T14:10:57.912Z,95355.28
2023-04-16T14:13:25.224Z,95356.34
2023-04-16T14:15:54.870Z,95346.41
2023-04-16T14:18:21.424Z,95349.44
2023-04-16T14:20:48.146Z,95351.81
2023-04-16T14:23:14.677Z,95357.81
2023-04-16T14:25:41.181Z,95360.00
2023-04-16T14:28:07.868Z,95352.06
2023-04-16T14:30:34.343Z,95352.78
2023-04-16T14:33:00.896Z,95352.00
2023-04-16T14:35:27.484Z,95355.00
2023-04-16T14:37:54.191Z,95352.78
2023-04-16T14:40:20.763Z,95353.47
2023-04-16T14:42:47.282Z,95351.75
2023-04-16T14:45:13.827Z,95353.38
2023-04-16T14:47:40.361Z,95355.19
2023-04-16T14:50:07.462Z,95346.63
2023-04-16T14:52:33.961Z,95347.94
2023-04-16T14:55:01.658Z,95347.41
2023-04-16T14:57:28.182Z,95340.88
2023-04-16T14:59:54.702Z,95347.56
2023-04-16T15:02:21.520Z,95344.44
2023-04-16T15:04:48.168Z,95345.81
2023-04-16T15:07:14.680Z,95349.66
2023-04-16T15:09:41.268Z,95345.09
2023-04-16T15:12:07.813Z,95341.91
2023-04-16T15:14:36.472Z,95341.41
2023-04-16T15:17:03.067Z,95344.84
2023-04-16T15:19:29.679Z,95345.03
2023-04-16T15:21:56.259Z,95343.66
2023-04-16T15:24:22.755Z,95340.06
2023-04-16T15:26:49.358Z,95342.47
2023-04-16T15:29:15.885Z,95351.03
2023-04-16T15:31:42.382Z,95349.16
2023-04-16T15:34:09.176Z,95346.09
2023-04-16T15:36:35.916Z,95346.88
2023-04-16T15:39:02.471Z,95357.94
2023-04-16T15:41:29.268Z,95355.06
2023-04-16T15:43:55.766Z,95356.34
2023-04-16T15:46:22.356Z,95359.13
2023-04-16T15:48:48.935Z,95349.28
2023-04-16T15:51:15.581Z,95346.25
2023-04-16T15:53:42.196Z,95350.69
2023-04-16T15:56:08.750Z,95347.56
2023-04-16T15:58:35.448Z,95354.97
2023-04-16T16:01:01.992Z,95352.47
2023-04-16T16:03:28.654Z,95350.84
2023-04-16T16:05:55.798Z,95351.22
2023-04-16T16:08:23.492Z,95352.38
2023-04-16T16:10:50.037Z,95366.06
2023-04-16T16:13:16.522Z,95362.91
2023-04-16T16:15:46.174Z,95365.34
2023-04-16T16:18:26.343Z,95356.06
2023-04-16T16:20:57.235Z,95360.56
2023-04-16T16:23:23.910Z,95363.63
2023-04-16T16:25:53.462Z,95362.03
2023-04-16T16:28:20.042Z,95364.44
2023-04-16T16:30:48.748Z,95366.19
2023-04-16T16:33:15.369Z,95365.91
2023-04-16T16:35:44.863Z,95364.13
2023-04-16T16:38:11.388Z,95366.13
2023-04-16T16:40:38.726Z,95365.69
2023-04-16T16:43:08.200Z,95365.94
2023-04-16T16:45:34.849Z,95374.25
2023-04-16T16:48:01.370Z,95375.25
2023-04-16T16:50:34.896Z,95368.19
2023-04-16T16:53:01.443Z,95382.56
2023-04-16T16:55:28.053Z,95376.91
2023-04-16T16:57:54.569Z,95378.78
2023-04-16T17:00:21.368Z,95377.69
2023-04-16T17:02:48.070Z,95375.31
2023-04-16T17:05:14.713Z,95372.25
2023-04-16T17:07:41.395Z,95376.19
2023-04-16T17:10:09.141Z,95377.97
2023-04-16T17:12:35.698Z,95386.00
2023-04-16T17:15:02.434Z,95384.25
2023-04-16T17:17:29.011Z,95389.75
2023-04-16T17:19:55.566Z,95392.19
2023-04-16T17:22:22.212Z,95402.13
2023-04-16T17:24:48.697Z,95384.84
2023-04-16T17:27:15.257Z,95392.78
2023-04-16T17:29:41.732Z,95388.75
2023-04-16T17:32:08.330Z,95389.25
2023-04-16T17:34:34.914Z,95393.91
2023-04-16T17:37:01.382Z,95380.91
2023-04-16T17:39:27.868Z,95383.31
2023-04-16T17:41:54.452Z,95388.22
2023-04-16T17:44:21.009Z,95380.38
2023-04-16T17:46:47.534Z,95383.56
2023-04-16T17:49:14.025Z,95385.03
2023-04-16T17:51:40.507Z,95393.19
2023-04-16T17:54:06.974Z,95389.03
2023-04-16T17:56:33.569Z,95384.06
2023-04-16T17:59:00.173Z,95386.94
2023-04-16T18:01:26.742Z,95388.16
2023-04-16T18:03:53.500Z,95397.66
2023-04-16T18:06:20.177Z,95401.25
2023-04-16T18:08:46.664Z,95398.44
2023-04-16T18:11:13.196Z,95384.78
2023-04-16T18:13:39.715Z,95391.63
2023-04-16T18:16:16.603Z,95394.53
2023-04-16T18:18:43.920Z,95384.38
2023-04-16T18:21:10.524Z,95393.19
2023-04-16T18:23:37.068Z,95386.19
2023-04-16T18:26:03.716Z,95389.06
2023-04-16T18:28:30.260Z,95382.00
2023-04-16T18:30:59.005Z,95394.81
2023-04-16T18:33:52.298Z,95382.50
2023-04-16T18:36:12.537Z,95393.91
2023-04-16T18:38:49.448Z,95384.16
2023-04-16T18:41:24.113Z,95389.63
2023-04-16T18:43:50.682Z,95394.72
2023-04-16T18:46:17.347Z,95396.31
2023-04-16T18:48:44.203Z,95395.16
2023-04-16T18:51:11.734Z,95385.81
2023-04-16T18:53:38.712Z,95397.16
2023-04-16T18:56:05.603Z,95399.56
2023-04-16T18:58:32.157Z,95407.25
2023-04-16T19:00:58.704Z,95402.03
2023-04-16T19:03:25.790Z,95411.78
2023-04-16T19:05:52.649Z,95407.47
2023-04-16T19:08:19.591Z,95420.44
2023-04-16T19:10:49.546Z,95419.03
2023-04-16T19:13:16.595Z,95418.06
2023-04-16T19:15:43.093Z,95415.63
2023-04-16T19:18:09.629Z,95409.38
2023-04-16T19:20:37.101Z,95417.69
2023-04-16T19:23:04.569Z,95414.66
2023-04-16T19:25:37.010Z,95412.38
2023-04-16T19:28:03.829Z,95414.22
2023-04-16T19:30:30.801Z,95417.25
2023-04-16T19:32:57.535Z,95417.06
2023-04-16T19:35:24.199Z,95410.97
2023-04-16T19:37:51.125Z,95414.00
2023-04-16T19:40:17.692Z,95419.47
2023-04-16T19:42:44.166Z,95422.56
2023-04-16T19:45:10.718Z,95411.78
2023-04-16T19:47:37.256Z,95421.53
2023-04-16T19:50:03.952Z,95425.78
2023-04-16T19:52:30.467Z,95427.19
2023-04-16T19:54:57.220Z,95428.44
2023-04-16T19:57:23.715Z,95410.75
2023-04-16T19:59:50.400Z,95424.34
2023-04-16T20:02:16.973Z,95432.22
2023-04-16T20:04:43.496Z,95420.97
2023-04-16T20:07:10.139Z,95428.44
2023-04-16T20:09:36.729Z,95419.97
2023-04-16T20:12:03.215Z,95422.25
2023-04-16T20:14:29.725Z,95408.31
2023-04-16T20:16:56.246Z,95407.94
2023-04-16T20:19:22.746Z,95403.25
2023-04-16T20:21:49.257Z,95399.22
2023-04-16T20:24:15.779Z,95411.78
2023-04-16T20:26:42.276Z,95403.81
2023-04-16T20:29:08.943Z,95403.19
2023-04-16T20:31:35.486Z,95402.75
2023-04-16T20:34:02.001Z,95400.22
2023-04-16T20:36:28.539Z,95402.03
2023-04-16T20:38:55.016Z,95400.56
2023-04-16T20:41:21.821Z,95402.84
2023-04-16T20:43:48.399Z,95399.63
2023-04-16T20:46:15.104Z,95389.47
2023-04-16T20:48:42.047Z,95386.22
2023-04-16T20:51:08.558Z,95385.19
2023-04-16T20:53:35.813Z,95388.22
2023-04-16T20:56:02.795Z,95386.81
2023-04-16T20:58:29.706Z,95375.03
2023-04-16T21:00:57.519Z,95380.72
2023-04-16T21:03:24.585Z,95377.28
2023-04-16T21:05:52.890Z,95373.22
2023-04-16T21:08:20.214Z,95374.66
2023-04-16T21:10:47.163Z,95361.22
2023-04-16T21:13:14.194Z,95366.31
2023-04-16T21:15:42.679Z,95348.47
2023-04-16T21:18:12.331Z,95374.19
2023-04-16T21:20:39.198Z,95360.59
2023-04-16T21:23:05.989Z,95370.28
2023-04-16T21:25:32.556Z,95370.25
2023-04-16T21:27:59.078Z,95365.78
2023-04-16T21:30:26.006Z,95350.00
2023-04-16T21:32:52.761Z,95359.53
2023-04-16T21:35:19.604Z,95344.31
2023-04-16T21:37:46.191Z,95347.50
2023-04-16T21:40:12.870Z,95357.44
2023-04-16T21:42:39.395Z,95358.06
2023-04-16T21:45:12.004Z,95346.94
2023-04-16T21:47:38.656Z,95342.28
2023-04-16T21:50:05.731Z,95349.53
2023-04-16T21:52:32.323Z,95351.19
2023-04-16T21:55:02.306Z,95347.94
2023-04-16T21:57:32.079Z,95350.34
2023-04-16T21:59:58.612Z,95349.13
2023-04-16T22:02:25.230Z,95347.94
2023-04-16T22:04:51.803Z,95346.94
2023-04-16T22:07:18.303Z,95339.06
2023-04-16T22:09:44.910Z,95344.97
2023-04-16T22:12:11.450Z,95351.00
2023-04-16T22:14:43.969Z,95340.88
2023-04-16T22:17:10.780Z,95335.00
2023-04-16T22:19:37.366Z,95326.09
2023-04-16T22:22:03.941Z,95324.72
2023-04-16T22:24:30.506Z,95317.16
2023-04-16T22:26:59.064Z,95314.75
2023-04-16T22:29:25.607Z,95306.66
2023-04-16T22:31:52.320Z,95307.88
2023-04-16T22:34:18.900Z,95311.75
2023-04-16T22:36:45.479Z,95303.63
2023-04-16T22:39:12.245Z,95294.34
2023-04-16T22:41:38.910Z,95302.03
2023-04-16T22:44:05.488Z,95303.19
2023-04-16T22:46:32.192Z,95295.72
2023-04-16T22:48:58.844Z,95294.06
2023-04-16T22:51:25.397Z,95295.69
2023-04-16T22:53:52.091Z,95282.75
2023-04-16T22:56:21.729Z,95286.22
2023-04-16T22:58:48.265Z,95290.47
2023-04-16T23:01:15.394Z,95279.72
2023-04-16T23:03:42.052Z,95287.59
2023-04-16T23:06:08.644Z,95274.41
2023-04-16T23:08:35.733Z,95275.41
2023-04-16T23:11:02.230Z,95289.59
2023-04-16T23:13:28.872Z,95270.16
2023-04-16T23:15:55.426Z,95266.50
2023-04-16T23:18:22.141Z,95263.69
2023-04-16T23:20:52.638Z,95261.84
2023-04-16T23:23:19.389Z,95270.56
2023-04-16T23:25:45.912Z,95259.19
2023-04-16T23:28:12.410Z,95245.00
2023-04-16T23:30:38.919Z,95261.22
2023-04-16T23:33:05.562Z,95266.84
2023-04-16T23:35:32.092Z,95263.25
2023-04-16T23:37:58.888Z,95253.97
2023-04-16T23:40:27.787Z,95258.44
2023-04-16T23:42:54.445Z,95255.16
2023-04-16T23:45:21.004Z,95253.38
2023-04-16T23:47:47.718Z,95262.66
2023-04-16T23:50:14.255Z,95261.22
2023-04-16T23:52:40.815Z,95265.88
2023-04-16T23:55:07.633Z,95260.38
2023-04-16T23:57:34.134Z,95254.25
